Time;durP1;ratioP1;P1;durP2;ratioP2;P2;SDS_P1;SDS_P2;PMS_P1;PMS_P2;Temp;Humidity;BMP_temperature;BMP_pressure;BME280_temperature;BME280_humidity;BME280_pressure;Samples;Min_cycle;Max_cycle;Signal;HPM_P1;HPM_P2
2023/06/20 00:00:57;;;;;;;;;;;;;;;;;;;;;
2023/06/20 00:03:51;;;;;;;;;;;;;;;;;;;;;
2023/06/20 00:10:11;;;;;;;;;0.00;0.00;;;;;;;;4828111;29;47109;-93
2023/06/20 00:13:19;;;;;;;;;;;;;;;;;;;;;
2023/06/20 00:40:16;;;;;;;;;;;;;;;;;;;;;
2023/06/20 00:58:16;;;;;;;;;;;;;;;;;;;;;
2023/06/20 01:01:19;;;;;;;;;2.50;0.75;;;;;;;;4973891;28;74317;-94
2023/06/20 01:03:58;;;;;;;;;0.25;0.00;;;;;;;;4960464;28;45499;-93
2023/06/20 01:06:31;;;;;;;;;0.00;0.00;;;;;;;;4976663;28;45605;-93
2023/06/20 01:09:33;;;;;;;;;;;;;;;;;;;;;
2023/06/20 01:12:35;;;;;;;;;;;;;;;;;;;;;
2023/06/20 01:15:46;;;;;;;;;;;;;;;;;;;;;
2023/06/20 01:21:49;;;;;;;;;1.00;0.00;;;;;;;;4920964;28;46190;-93
2023/06/20 01:28:00;;;;;;;;;0.50;0.50;;;;;;;;4915919;28;45438;-93
2023/06/20 01:34:15;;;;;;;;;;;;;;;;;;;;;
2023/06/20 01:43:24;;;;;;;;;0.75;0.75;;;;;;;;4824433;29;45735;-94
2023/06/20 01:46:16;;;;;;;;;0.00;0.00;;;;;;;;4809985;29;46499;-93
2023/06/20 01:52:22;;;;;;;;;;;;;;;;;;;;;
2023/06/20 02:00:40;;;;;;;;;;;;;;;;;;;;;
2023/06/20 02:03:10;;;;;;;;;0.00;0.00;;;;;;;;4914026;28;69781;-95
2023/06/20 02:05:36;;;;;;;;;1.00;1.00;;;;;;;;4917790;28;45498;-91
2023/06/20 02:08:02;;;;;;;;;4.00;0.67;;;;;;;;4917362;28;45833;-91
2023/06/20 02:10:46;;;;;;;;;;;;;;;;;;;;;
2023/06/20 02:13:42;;;;;;;;;;;;;;;;;;;;;
2023/06/20 02:16:28;;;;;;;;;;;;;;;;;;;;;
2023/06/20 02:22:38;;;;;;;;;;;;;;;;;;;;;
2023/06/20 02:25:22;;;;;;;;;;;;;;;;;;;;;
2023/06/20 02:31:32;;;;;;;;;;;;;;;;;;;;;
2023/06/20 02:43:36;;;;;;;;;;;;;;;;;;;;;
2023/06/20 02:56:07;;;;;;;;;;;;;;;;;;;;;
2023/06/20 03:05:25;;;;;;;;;1.00;1.00;;;;;;;;4811344;29;45633;-93
2023/06/20 03:11:28;;;;;;;;;;;;;;;;;;;;;
2023/06/20 03:14:45;;;;;;;;;;;;;;;;;;;;;
2023/06/20 03:26:37;;;;;;;;;;;;;;;;;;;;;
2023/06/20 03:29:18;;;;;;;;;;;;;;;;;;;;;
2023/06/20 03:32:23;;;;;;;;;;;;;;;;;;;;;
2023/06/20 03:35:11;;;;;;;;;0.75;0.00;;;;;;;;4951072;28;73000;-94
2023/06/20 03:38:09;;;;;;;;;;;;;;;;;;;;;
2023/06/20 03:47:06;;;;;;;;;1.00;1.00;;;;;;;;4958011;28;45611;-95
2023/06/20 03:49:47;;;;;;;;;;;;;;;;;;;;;
2023/06/20 04:08:12;;;;;;;;;;;;;;;;;;;;;
2023/06/20 04:10:58;;;;;;;;;;;;;;;;;;;;;
2023/06/20 04:13:56;;;;;;;;;;;;;;;;;;;;;
2023/06/20 04:29:03;;;;;;;;;5.00;3.00;;;;;;;;4788875;29;45391;-93
2023/06/20 04:31:47;;;;;;;;;;;;;;;;;;;;;
2023/06/20 04:34:32;;;;;;;;;1.25;1.25;;;;;;;;4805217;29;73626;-95
2023/06/20 04:37:28;;;;;;;;;;;;;;;;;;;;;
2023/06/20 04:40:05;;;;;;;;;1.00;1.00;;;;;;;;4884971;29;71103;-94
2023/06/20 05:26:31;;;;;;;;;;;;;;;;;;;;;
2023/06/20 05:29:03;;;;;;;;;4.00;1.50;;;;;;;;4945885;28;74345;-86
2023/06/20 05:31:32;;;;;;;;;2.50;1.75;;;;;;;;5015852;28;45404;-88
2023/06/20 05:34:02;;;;;;;;;1.00;1.00;;;;;;;;4998001;28;45359;-88
2023/06/20 05:36:28;;;;;;;;;1.50;1.50;;;;;;;;5016323;28;45478;-87
2023/06/20 05:38:53;;;;;;;;;0.50;0.50;;;;;;;;5015389;28;45902;-85
2023/06/20 05:41:19;;;;;;;;;2.75;1.50;;;;;;;;4995666;28;45480;-86
2023/06/20 05:43:47;;;;;;;;;0.75;0.75;;;;;;;;5015566;28;45350;-85
2023/06/20 05:46:12;;;;;;;;;2.25;1.75;;;;;;;;4997637;28;45449;-89
2023/06/20 05:48:43;;;;;;;;;2.75;1.00;;;;;;;;5016233;28;46561;-90
2023/06/20 05:51:14;;;;;;;;;1.50;1.50;;;;;;;;5015820;28;45795;-85
2023/06/20 05:53:42;;;;;;;;;1.50;1.50;;;;;;;;4998272;28;45514;-85
2023/06/20 05:56:08;;;;;;;;;2.00;1.75;;;;;;;;5015164;28;45398;-87
2023/06/20 05:59:09;;;;;;;;;1.75;1.75;;;;;;;;5016980;28;45455;-87
2023/06/20 06:01:40;;;;;;;;;1.50;0.75;;;;;;;;4935995;28;45750;-88
2023/06/20 06:04:06;;;;;;;;;3.00;2.00;;;;;;;;4936797;28;45579;-87
2023/06/20 06:06:31;;;;;;;;;1.00;1.00;;;;;;;;4935878;28;45898;-88
2023/06/20 06:08:56;;;;;;;;;1.75;1.75;;;;;;;;4934964;28;47057;-88
2023/06/20 06:11:22;;;;;;;;;4.00;2.50;;;;;;;;4935587;28;45530;-89
2023/06/20 06:13:47;;;;;;;;;5.75;2.25;;;;;;;;4935620;28;45562;-88
2023/06/20 06:16:13;;;;;;;;;3.25;2.75;;;;;;;;4935382;28;45439;-88
2023/06/20 06:18:41;;;;;;;;;1.75;1.75;;;;;;;;4935344;28;47057;-88
2023/06/20 06:21:07;;;;;;;;;3.75;2.50;;;;;;;;4935217;28;45591;-87
2023/06/20 06:23:32;;;;;;;;;1.75;1.75;;;;;;;;4934664;28;45496;-88
2023/06/20 06:25:57;;;;;;;;;5.00;3.00;;;;;;;;4934650;28;45488;-88
2023/06/20 06:28:24;;;;;;;;;2.25;2.25;;;;;;;;4935146;28;46576;-89
2023/06/20 06:30:49;;;;;;;;;2.50;2.50;;;;;;;;4935243;28;45353;-89
2023/06/20 06:33:19;;;;;;;;;3.00;2.00;;;;;;;;4935012;28;45378;-87
2023/06/20 06:35:45;;;;;;;;;3.50;3.50;;;;;;;;4970452;28;45363;-88
2023/06/20 06:38:11;;;;;;;;;5.75;3.25;;;;;;;;4995261;28;46899;-88
2023/06/20 06:40:36;;;;;;;;;3.25;2.25;;;;;;;;4995988;28;45312;-88
2023/06/20 06:43:02;;;;;;;;;3.75;2.00;;;;;;;;4996051;28;45284;-88
2023/06/20 06:45:27;;;;;;;;;3.25;3.25;;;;;;;;4977585;28;45710;-90
2023/06/20 06:47:52;;;;;;;;;3.67;3.67;;;;;;;;4995374;28;46120;-87
2023/06/20 06:50:17;;;;;;;;;4.00;2.75;;;;;;;;4994569;28;45387;-86
2023/06/20 06:52:43;;;;;;;;;3.33;2.33;;;;;;;;4994745;28;45283;-85
2023/06/20 06:55:08;;;;;;;;;4.67;3.00;;;;;;;;4995046;28;45453;-88
2023/06/20 06:57:33;;;;;;;;;3.50;3.50;;;;;;;;4995388;28;46318;-88
2023/06/20 06:59:59;;;;;;;;;5.00;3.00;;;;;;;;4995440;28;45355;-88
2023/06/20 07:02:26;;;;;;;;;4.00;4.00;;;;;;;;4995923;28;45348;-87
2023/06/20 07:04:52;;;;;;;;;5.75;3.00;;;;;;;;4995039;28;45543;-87
2023/06/20 07:07:17;;;;;;;;;4.00;3.00;;;;;;;;4995262;28;46799;-90
2023/06/20 07:09:42;;;;;;;;;5.00;3.00;;;;;;;;4995808;28;45471;-89
2023/06/20 07:12:07;;;;;;;;;6.00;4.00;;;;;;;;4979368;28;45459;-90
2023/06/20 07:14:33;;;;;;;;;2.75;2.75;;;;;;;;4998648;28;45321;-88
2023/06/20 07:16:59;;;;;;;;;4.75;3.00;;;;;;;;4998592;28;45384;-89
2023/06/20 07:19:24;;;;;;;;;2.75;1.75;;;;;;;;4999091;28;45416;-89
2023/06/20 07:21:52;;;;;;;;;3.00;3.00;;;;;;;;4997803;28;45416;-91
2023/06/20 07:24:17;;;;;;;;;4.50;3.00;;;;;;;;4980133;28;45383;-85
2023/06/20 07:26:43;;;;;;;;;5.00;3.33;;;;;;;;4979530;28;48271;-86
2023/06/20 07:29:08;;;;;;;;;2.00;2.00;;;;;;;;4997744;28;45434;-85
2023/06/20 07:31:33;;;;;;;;;4.00;3.33;;;;;;;;4988715;28;47813;-84
2023/06/20 07:33:58;;;;;;;;;4.67;3.00;;;;;;;;4996778;28;45374;-85
2023/06/20 07:36:23;;;;;;;;;2.00;2.00;;;;;;;;4999580;28;45364;-84
2023/06/20 07:38:49;;;;;;;;;5.00;3.00;;;;;;;;4995532;28;45433;-84
2023/06/20 07:41:45;;;;;;;;;5.67;3.00;;;;;;;;4995944;28;45398;-84
2023/06/20 07:44:10;;;;;;;;;6.00;4.25;;;;;;;;5003853;28;45357;-85
2023/06/20 07:46:36;;;;;;;;;5.00;4.75;;;;;;;;4996289;28;46074;-84
2023/06/20 07:49:01;;;;;;;;;4.75;4.75;;;;;;;;4978522;28;45486;-85
2023/06/20 07:51:31;;;;;;;;;4.75;4.75;;;;;;;;5004861;28;45739;-86
2023/06/20 07:53:56;;;;;;;;;8.00;4.50;;;;;;;;4992906;28;45471;-87
2023/06/20 07:56:21;;;;;;;;;4.75;4.75;;;;;;;;4999397;28;45549;-85
2023/06/20 07:58:47;;;;;;;;;7.33;3.67;;;;;;;;5007628;22;45466;-85
2023/06/20 08:01:12;;;;;;;;;4.50;4.50;;;;;;;;5026728;28;45258;-84
2023/06/20 08:03:38;;;;;;;;;4.75;4.75;;;;;;;;5036559;28;45318;-85
2023/06/20 08:06:03;;;;;;;;;2.00;2.00;;;;;;;;5035685;28;46483;-86
2023/06/20 08:08:28;;;;;;;;;6.67;4.00;;;;;;;;5035487;28;45425;-85
2023/06/20 08:10:53;;;;;;;;;6.67;3.00;;;;;;;;5023182;28;45450;-87
2023/06/20 08:13:19;;;;;;;;;6.00;3.33;;;;;;;;5028834;28;45478;-86
2023/06/20 08:15:44;;;;;;;;;6.00;4.33;;;;;;;;5025135;28;46496;-87
2023/06/20 08:18:09;;;;;;;;;6.33;5.33;;;;;;;;5034443;28;45395;-85
2023/06/20 08:20:34;;;;;;;;;6.67;5.00;;;;;;;;5033806;28;45294;-85
2023/06/20 08:23:00;;;;;;;;;5.50;4.25;;;;;;;;5036217;28;45363;-86
2023/06/20 08:25:25;;;;;;;;;4.33;4.00;;;;;;;;5026976;28;45256;-85
2023/06/20 08:27:50;;;;;;;;;5.00;5.00;;;;;;;;5032095;28;45454;-84
2023/06/20 08:30:15;;;;;;;;;10.00;6.00;;;;;;;;5031189;28;45638;-86
2023/06/20 08:32:42;;;;;;;;;6.25;4.00;;;;;;;;5035555;28;45491;-85
2023/06/20 08:35:09;;;;;;;;;6.00;5.00;;;;;;;;5031270;28;46462;-86
2023/06/20 08:37:35;;;;;;;;;7.00;4.00;;;;;;;;5033174;28;45827;-87
2023/06/20 08:40:00;;;;;;;;;5.00;4.00;;;;;;;;5033694;28;45374;-85
2023/06/20 08:42:28;;;;;;;;;5.00;4.33;;;;;;;;5036164;28;45382;-85
2023/06/20 08:44:56;;;;;;;;;6.50;6.00;;;;;;;;5035878;28;46328;-86
2023/06/20 08:47:22;;;;;;;;;5.75;4.00;;;;;;;;5023903;28;45954;-86
2023/06/20 08:49:47;;;;;;;;;4.50;4.25;;;;;;;;5019035;28;45615;-85
2023/06/20 08:52:12;;;;;;;;;8.75;5.00;;;;;;;;5034306;28;45374;-87
2023/06/20 08:54:39;;;;;;;;;6.75;3.00;;;;;;;;5035784;28;45460;-85
2023/06/20 08:57:06;;;;;;;;;4.75;3.75;;;;;;;;5035475;28;45436;-86
2023/06/20 08:59:31;;;;;;;;;8.25;4.50;;;;;;;;5045136;28;45303;-86
2023/06/20 09:01:56;;;;;;;;;7.25;5.00;;;;;;;;5051432;28;45531;-86
2023/06/20 09:04:21;;;;;;;;;7.25;4.75;;;;;;;;5045643;28;45330;-86
2023/06/20 09:06:50;;;;;;;;;7.00;6.00;;;;;;;;5055778;28;45442;-87
2023/06/20 09:09:18;;;;;;;;;7.25;4.50;;;;;;;;5052636;28;45178;-86
2023/06/20 09:11:48;;;;;;;;;9.75;5.75;;;;;;;;5053135;27;45341;-86
2023/06/20 09:14:14;;;;;;;;;8.50;6.25;;;;;;;;5053578;28;47200;-87
2023/06/20 09:16:40;;;;;;;;;5.00;4.75;;;;;;;;5047095;28;45394;-86
2023/06/20 09:19:06;;;;;;;;;9.25;5.50;;;;;;;;5045225;28;45524;-84
2023/06/20 09:21:35;;;;;;;;;4.00;4.00;;;;;;;;5040615;28;45685;-85
2023/06/20 09:24:02;;;;;;;;;8.25;5.50;;;;;;;;5052266;28;46328;-85
2023/06/20 09:26:28;;;;;;;;;8.00;5.00;;;;;;;;5045773;28;45833;-84
2023/06/20 09:29:04;;;;;;;;;8.25;5.25;;;;;;;;5051109;28;45377;-86
2023/06/20 09:31:38;;;;;;;;;5.50;5.00;;;;;;;;5060698;28;45580;-85
2023/06/20 09:34:03;;;;;;;;;7.75;3.25;;;;;;;;5067546;28;46407;-86
2023/06/20 09:36:28;;;;;;;;;5.67;3.33;;;;;;;;5054197;28;45441;-85
2023/06/20 09:38:56;;;;;;;;;4.67;4.67;;;;;;;;5073220;28;45395;-87
2023/06/20 09:41:21;;;;;;;;;6.25;4.00;;;;;;;;5074343;28;45348;-86
2023/06/20 09:43:46;;;;;;;;;4.33;4.00;;;;;;;;5055852;28;47062;-86
2023/06/20 09:46:12;;;;;;;;;4.00;3.00;;;;;;;;5051692;28;45498;-86
2023/06/20 09:48:38;;;;;;;;;7.00;6.00;;;;;;;;5060180;28;45540;-86
2023/06/20 09:51:05;;;;;;;;;7.00;5.00;;;;;;;;5060410;28;45431;-87
2023/06/20 09:53:54;;;;;;;;;5.25;5.25;;;;;;;;5064100;28;46518;-87
2023/06/20 09:56:19;;;;;;;;;7.00;4.75;;;;;;;;5053950;28;45559;-90
2023/06/20 09:58:46;;;;;;;;;5.75;4.75;;;;;;;;5044363;28;45456;-87
2023/06/20 10:01:14;;;;;;;;;3.75;3.00;;;;;;;;5052199;28;45412;-87
2023/06/20 10:03:40;;;;;;;;;4.00;4.00;;;;;;;;5047163;28;45482;-86
2023/06/20 10:06:08;;;;;;;;;4.00;3.50;;;;;;;;5060656;28;45842;-91
2023/06/20 10:08:34;;;;;;;;;4.25;3.00;;;;;;;;5059598;28;45376;-84
2023/06/20 10:11:01;;;;;;;;;3.50;3.25;;;;;;;;5051050;28;45486;-92
2023/06/20 10:13:27;;;;;;;;;6.00;4.75;;;;;;;;5060537;28;46382;-86
2023/06/20 10:15:52;;;;;;;;;5.25;4.00;;;;;;;;5037626;28;45805;-88
2023/06/20 10:18:18;;;;;;;;;4.25;4.25;;;;;;;;5055981;28;45379;-90
2023/06/20 10:20:44;;;;;;;;;5.25;4.00;;;;;;;;5070005;28;45352;-86
2023/06/20 10:23:10;;;;;;;;;5.25;4.25;;;;;;;;5047282;28;48740;-87
2023/06/20 10:25:48;;;;;;;;;4.00;3.00;;;;;;;;5038558;28;45749;-87
2023/06/20 10:28:13;;;;;;;;;3.00;3.00;;;;;;;;5057279;28;45180;-86
2023/06/20 10:30:53;;;;;;;;;2.00;2.00;;;;;;;;5057959;28;45402;-87
2023/06/20 10:33:24;;;;;;;;;6.25;4.00;;;;;;;;5061540;28;46290;-88
2023/06/20 10:35:50;;;;;;;;;4.00;3.00;;;;;;;;5062492;28;45419;-87
2023/06/20 10:38:16;;;;;;;;;3.00;3.00;;;;;;;;5062313;28;45363;-88
2023/06/20 10:40:41;;;;;;;;;3.50;2.50;;;;;;;;5042669;28;45378;-87
2023/06/20 10:43:17;;;;;;;;;2.50;1.50;;;;;;;;5045829;28;46604;-88
2023/06/20 10:45:57;;;;;;;;;4.00;2.00;;;;;;;;5044027;28;45805;-88
2023/06/20 10:48:23;;;;;;;;;4.00;2.00;;;;;;;;5061849;28;45364;-86
2023/06/20 10:50:48;;;;;;;;;1.25;1.25;;;;;;;;5065134;28;45556;-87
2023/06/20 10:53:13;;;;;;;;;4.00;2.00;;;;;;;;5063420;28;47829;-88
2023/06/20 10:55:43;;;;;;;;;3.00;2.00;;;;;;;;5038272;28;46683;-88
2023/06/20 10:58:09;;;;;;;;;3.75;3.00;;;;;;;;5050160;28;45456;-88
2023/06/20 11:00:52;;;;;;;;;3.33;2.33;;;;;;;;5060642;28;45437;-90
2023/06/20 11:03:21;;;;;;;;;3.50;2.00;;;;;;;;5074714;28;46633;-90
2023/06/20 11:05:50;;;;;;;;;1.50;1.00;;;;;;;;5035848;28;45758;-90
2023/06/20 11:08:26;;;;;;;;;4.75;2.50;;;;;;;;5052529;28;45404;-88
2023/06/20 11:10:51;;;;;;;;;2.75;1.75;;;;;;;;5055489;28;45520;-88
2023/06/20 11:13:17;;;;;;;;;2.00;1.25;;;;;;;;5061689;28;45523;-92
2023/06/20 11:19:36;;;;;;;;;;;;;;;;;;;;;
2023/06/20 11:28:17;;;;;;;;;2.75;1.00;;;;;;;;4915823;28;46282;-90
2023/06/20 11:31:21;;;;;;;;;;;;;;;;;;;;;
2023/06/20 11:40:23;;;;;;;;;0.75;0.75;;;;;;;;4790017;29;45303;-95
2023/06/20 11:52:07;;;;;;;;;2.00;2.00;;;;;;;;4821237;29;45563;-92
2023/06/20 12:50:03;;;;;;;;;2.00;2.00;;;;;;;;4735728;29;45570;-95
2023/06/20 12:52:47;;;;;;;;;3.50;3.00;;;;;;;;4812511;29;46926;-96
2023/06/20 12:58:34;;;;;;;;;3.00;3.00;;;;;;;;4811100;29;45510;-96
2023/06/20 13:49:32;;;;;;;;;2.50;1.25;;;;;;;;5030124;28;45226;-90
2023/06/20 13:51:57;;;;;;;;;1.75;1.50;;;;;;;;5031876;28;45750;-91
2023/06/20 13:54:22;;;;;;;;;1.33;1.00;;;;;;;;5030065;28;45591;-88
2023/06/20 13:56:48;;;;;;;;;4.00;1.50;;;;;;;;5030238;28;46687;-89
2023/06/20 13:59:13;;;;;;;;;1.00;1.00;;;;;;;;5030406;28;45698;-88
2023/06/20 14:01:40;;;;;;;;;2.25;1.25;;;;;;;;5028972;28;45495;-88
2023/06/20 14:04:06;;;;;;;;;1.00;1.00;;;;;;;;5029101;28;45455;-86
2023/06/20 14:06:32;;;;;;;;;6.33;2.00;;;;;;;;5030558;28;46342;-87
2023/06/20 14:08:57;;;;;;;;;1.00;0.00;;;;;;;;5030024;28;46258;-89
2023/06/20 14:11:22;;;;;;;;;0.50;0.50;;;;;;;;5032784;28;45441;-87
2023/06/20 14:13:50;;;;;;;;;2.00;1.00;;;;;;;;5028538;28;45722;-90
2023/06/20 14:16:15;;;;;;;;;1.25;1.25;;;;;;;;5011231;28;45540;-89
2023/06/20 14:18:41;;;;;;;;;2.00;0.00;;;;;;;;5028270;28;45692;-89
2023/06/20 14:21:06;;;;;;;;;5.00;2.00;;;;;;;;5030494;28;45642;-89
2023/06/20 14:23:31;;;;;;;;;2.00;1.33;;;;;;;;5029822;28;45361;-89
2023/06/20 14:25:59;;;;;;;;;0.75;0.50;;;;;;;;5030978;28;45437;-88
2023/06/20 14:28:27;;;;;;;;;2.00;1.00;;;;;;;;5028108;28;46265;-89
2023/06/20 14:30:54;;;;;;;;;2.00;1.50;;;;;;;;5031128;28;45428;-90
2023/06/20 14:33:20;;;;;;;;;3.25;1.00;;;;;;;;5030299;28;45468;-89
2023/06/20 14:35:48;;;;;;;;;3.25;1.00;;;;;;;;5028274;28;45462;-90
2023/06/20 14:38:15;;;;;;;;;3.75;1.00;;;;;;;;5028272;28;46551;-88
2023/06/20 14:40:45;;;;;;;;;0.00;0.00;;;;;;;;5030538;28;45482;-90
2023/06/20 14:43:10;;;;;;;;;1.00;1.00;;;;;;;;5031269;28;45522;-90
2023/06/20 14:45:36;;;;;;;;;2.25;0.75;;;;;;;;5030974;28;45497;-90
2023/06/20 14:48:03;;;;;;;;;1.00;1.00;;;;;;;;5031429;28;45336;-91
2023/06/20 14:50:29;;;;;;;;;1.00;1.00;;;;;;;;5031697;28;45354;-91
2023/06/20 14:52:54;;;;;;;;;1.00;1.00;;;;;;;;5030611;28;45425;-92
2023/06/20 14:55:19;;;;;;;;;2.00;0.00;;;;;;;;5037975;28;45305;-90
2023/06/20 14:57:44;;;;;;;;;1.00;1.00;;;;;;;;5015825;28;47353;-87
2023/06/20 15:00:19;;;;;;;;;3.00;0.00;;;;;;;;5015158;28;45472;-87
2023/06/20 15:02:45;;;;;;;;;0.00;0.00;;;;;;;;5016623;28;45584;-88
2023/06/20 15:05:10;;;;;;;;;1.50;0.75;;;;;;;;5014915;28;45464;-90
2023/06/20 15:07:35;;;;;;;;;3.00;0.00;;;;;;;;5017472;28;46366;-89
2023/06/20 15:10:01;;;;;;;;;0.00;0.00;;;;;;;;5015382;28;45372;-91
2023/06/20 15:12:26;;;;;;;;;1.25;0.00;;;;;;;;5019242;28;45196;-92
2023/06/20 15:14:52;;;;;;;;;0.67;0.67;;;;;;;;5014934;28;46541;-89
2023/06/20 15:17:17;;;;;;;;;0.00;0.00;;;;;;;;5002921;28;46976;-90
2023/06/20 15:19:44;;;;;;;;;0.00;0.00;;;;;;;;5017653;28;45521;-87
2023/06/20 15:22:09;;;;;;;;;1.00;0.50;;;;;;;;5017652;28;45535;-88
2023/06/20 15:24:34;;;;;;;;;0.00;0.00;;;;;;;;5016778;28;45477;-90
2023/06/20 15:27:00;;;;;;;;;0.00;0.00;;;;;;;;5014690;28;45631;-89
2023/06/20 15:29:25;;;;;;;;;1.33;0.67;;;;;;;;5017211;28;45483;-89
2023/06/20 15:31:50;;;;;;;;;2.00;0.00;;;;;;;;5016917;28;46526;-89
2023/06/20 15:34:15;;;;;;;;;2.33;1.00;;;;;;;;5018138;28;45454;-89
2023/06/20 15:36:41;;;;;;;;;6.67;1.67;;;;;;;;5016387;28;46474;-88
2023/06/20 15:39:06;;;;;;;;;0.67;0.33;;;;;;;;5016744;28;45479;-88
2023/06/20 15:41:31;;;;;;;;;1.33;0.33;;;;;;;;5016656;28;45447;-86
2023/06/20 15:43:56;;;;;;;;;0.67;0.67;;;;;;;;5013095;28;45511;-90
2023/06/20 15:46:22;;;;;;;;;0.00;0.00;;;;;;;;5018298;28;45454;-89
2023/06/20 15:48:57;;;;;;;;;1.50;0.00;;;;;;;;5015702;28;45765;-91
2023/06/20 15:51:24;;;;;;;;;0.00;0.00;;;;;;;;5017145;28;45415;-90
2023/06/20 15:53:49;;;;;;;;;0.00;0.00;;;;;;;;5016920;28;45507;-90
2023/06/20 15:56:14;;;;;;;;;0.25;0.25;;;;;;;;5016938;28;45811;-89
2023/06/20 15:58:42;;;;;;;;;0.00;0.00;;;;;;;;5014858;28;45468;-87
2023/06/20 16:01:07;;;;;;;;;1.00;1.00;;;;;;;;5011002;28;45468;-87
2023/06/20 16:03:32;;;;;;;;;1.75;0.75;;;;;;;;5012205;28;46001;-88
2023/06/20 16:05:58;;;;;;;;;3.00;1.33;;;;;;;;5015996;28;47143;-87
2023/06/20 16:08:23;;;;;;;;;1.00;1.00;;;;;;;;5015311;28;45337;-86
2023/06/20 16:10:48;;;;;;;;;2.67;1.00;;;;;;;;5006777;28;45514;-86
2023/06/20 16:13:14;;;;;;;;;4.00;2.00;;;;;;;;5015383;28;45490;-86
2023/06/20 16:15:39;;;;;;;;;3.67;2.00;;;;;;;;5014199;28;47039;-87
2023/06/20 16:18:04;;;;;;;;;2.67;2.00;;;;;;;;5014894;28;45536;-87
2023/06/20 16:20:29;;;;;;;;;0.33;0.33;;;;;;;;5015653;28;45427;-88
2023/06/20 16:22:54;;;;;;;;;3.00;2.00;;;;;;;;5015769;28;45444;-88
2023/06/20 16:25:20;;;;;;;;;2.00;2.00;;;;;;;;5014663;28;46515;-88
2023/06/20 16:27:45;;;;;;;;;1.67;1.67;;;;;;;;5012464;28;45505;-87
2023/06/20 16:30:10;;;;;;;;;1.00;1.00;;;;;;;;5014933;28;45500;-87
2023/06/20 16:32:36;;;;;;;;;2.25;0.25;;;;;;;;5015492;28;45573;-87
2023/06/20 16:35:01;;;;;;;;;1.33;1.33;;;;;;;;5013856;28;46735;-85
2023/06/20 16:37:26;;;;;;;;;0.67;0.67;;;;;;;;5018379;28;45439;-93
2023/06/20 16:39:51;;;;;;;;;1.00;1.00;;;;;;;;5020799;28;45441;-94
2023/06/20 16:42:18;;;;;;;;;1.33;1.33;;;;;;;;5018658;28;45500;-96
2023/06/20 16:44:44;;;;;;;;;4.00;2.00;;;;;;;;5015513;28;45624;-95
2023/06/20 16:47:09;;;;;;;;;2.33;0.00;;;;;;;;5018152;28;45376;-90
2023/06/20 16:49:34;;;;;;;;;2.00;1.00;;;;;;;;5021611;28;45614;-95
2023/06/20 16:51:59;;;;;;;;;1.67;1.67;;;;;;;;5021118;28;45289;-92
2023/06/20 16:54:24;;;;;;;;;1.00;1.00;;;;;;;;5028253;28;45566;-96
2023/06/20 16:56:50;;;;;;;;;3.33;1.00;;;;;;;;5024323;28;45412;-96
2023/06/20 16:59:15;;;;;;;;;1.00;1.00;;;;;;;;5024613;28;45364;-96
2023/06/20 17:01:43;;;;;;;;;4.00;0.00;;;;;;;;5026539;28;45431;-96
2023/06/20 17:04:08;;;;;;;;;3.00;1.75;;;;;;;;5020982;28;45529;-95
2023/06/20 17:06:34;;;;;;;;;1.33;1.00;;;;;;;;5026530;28;45366;-96
2023/06/20 17:08:59;;;;;;;;;4.75;1.50;;;;;;;;5015372;28;45364;-89
2023/06/20 17:11:25;;;;;;;;;2.67;1.67;;;;;;;;5019756;28;45437;-86
2023/06/20 17:13:50;;;;;;;;;2.25;2.00;;;;;;;;5012272;28;45531;-88
2023/06/20 17:16:16;;;;;;;;;4.33;0.67;;;;;;;;5015604;28;45426;-87
2023/06/20 17:18:41;;;;;;;;;2.00;1.25;;;;;;;;5015211;28;45765;-86
2023/06/20 17:21:07;;;;;;;;;3.00;1.00;;;;;;;;5014860;28;45417;-86
2023/06/20 17:23:32;;;;;;;;;3.25;1.50;;;;;;;;5013656;28;45460;-86
2023/06/20 17:25:58;;;;;;;;;2.00;2.00;;;;;;;;5016142;28;45857;-86
2023/06/20 17:28:23;;;;;;;;;3.33;3.00;;;;;;;;5014816;28;46981;-92
2023/06/20 17:30:51;;;;;;;;;1.75;1.75;;;;;;;;5014442;28;45438;-87
2023/06/20 17:33:17;;;;;;;;;1.50;1.50;;;;;;;;4997263;28;47347;-89
2023/06/20 17:35:42;;;;;;;;;4.33;2.00;;;;;;;;5015199;28;45457;-84
2023/06/20 17:38:07;;;;;;;;;1.67;1.33;;;;;;;;5019119;28;45405;-85
2023/06/20 17:40:32;;;;;;;;;7.67;2.33;;;;;;;;5016590;28;45615;-85
2023/06/20 17:42:57;;;;;;;;;2.00;1.00;;;;;;;;5013955;28;45401;-85
2023/06/20 17:45:23;;;;;;;;;2.00;2.00;;;;;;;;5011855;28;45385;-85
2023/06/20 17:47:48;;;;;;;;;6.00;2.67;;;;;;;;5014398;28;45462;-84
2023/06/20 17:50:14;;;;;;;;;2.33;1.33;;;;;;;;5013512;28;45531;-86
2023/06/20 17:52:39;;;;;;;;;1.25;1.00;;;;;;;;5011563;28;46185;-83
2023/06/20 17:55:05;;;;;;;;;3.50;2.00;;;;;;;;5013653;28;45607;-86
2023/06/20 17:57:30;;;;;;;;;0.25;0.25;;;;;;;;5015405;28;45563;-87
2023/06/20 17:59:56;;;;;;;;;1.50;1.25;;;;;;;;5017281;28;45626;-90
2023/06/20 18:02:21;;;;;;;;;4.50;1.75;;;;;;;;5017066;28;45532;-91
2023/06/20 18:04:46;;;;;;;;;3.00;2.00;;;;;;;;5017755;28;45346;-87
2023/06/20 18:07:11;;;;;;;;;1.33;1.33;;;;;;;;5013538;28;45460;-85
2023/06/20 18:09:37;;;;;;;;;2.00;2.00;;;;;;;;5014672;28;45718;-88
2023/06/20 18:12:02;;;;;;;;;3.00;3.00;;;;;;;;5013350;28;46403;-83
2023/06/20 18:14:45;;;;;;;;;3.25;2.00;;;;;;;;5015498;28;45510;-91
2023/06/20 18:17:10;;;;;;;;;2.25;1.75;;;;;;;;5012564;28;45431;-92
2023/06/20 18:19:35;;;;;;;;;2.00;1.75;;;;;;;;5019653;28;45415;-93
2023/06/20 18:22:01;;;;;;;;;3.33;1.67;;;;;;;;5018473;28;46802;-89
2023/06/20 18:24:26;;;;;;;;;2.75;2.75;;;;;;;;5014221;28;45435;-88
2023/06/20 18:26:51;;;;;;;;;3.00;2.00;;;;;;;;5016487;28;45428;-93
2023/06/20 18:29:17;;;;;;;;;3.75;3.00;;;;;;;;5017722;28;45211;-93
2023/06/20 18:31:45;;;;;;;;;2.33;2.33;;;;;;;;5014585;28;46268;-93
2023/06/20 18:34:10;;;;;;;;;4.00;2.00;;;;;;;;5012473;28;45583;-88
2023/06/20 18:36:35;;;;;;;;;3.75;2.75;;;;;;;;5017056;28;45464;-90
2023/06/20 18:39:13;;;;;;;;;2.33;2.33;;;;;;;;5018038;28;45536;-91
2023/06/20 18:41:48;;;;;;;;;2.75;2.25;;;;;;;;5018464;28;46114;-94
2023/06/20 18:44:16;;;;;;;;;2.25;2.00;;;;;;;;5026229;28;45237;-94
2023/06/20 18:46:41;;;;;;;;;4.75;3.00;;;;;;;;5029247;28;45455;-91
2023/06/20 18:49:10;;;;;;;;;3.00;3.00;;;;;;;;5018974;28;45487;-90
2023/06/20 18:51:45;;;;;;;;;2.75;2.00;;;;;;;;5011791;28;47443;-90
2023/06/20 18:54:18;;;;;;;;;13.25;10.25;;;;;;;;5016570;28;45563;-89
2023/06/20 18:56:43;;;;;;;;;5.00;3.50;;;;;;;;5016607;28;45354;-87
2023/06/20 18:59:08;;;;;;;;;3.25;1.75;;;;;;;;5017293;28;45617;-87
2023/06/20 19:01:34;;;;;;;;;3.50;3.50;;;;;;;;5017460;28;47058;-87
2023/06/20 19:03:59;;;;;;;;;3.00;3.00;;;;;;;;5014778;28;46141;-91
2023/06/20 19:06:24;;;;;;;;;6.00;3.00;;;;;;;;5022477;28;45379;-86
2023/06/20 19:08:49;;;;;;;;;2.33;2.33;;;;;;;;5014076;28;45504;-88
2023/06/20 19:11:15;;;;;;;;;5.67;2.33;;;;;;;;5016558;28;46134;-89
2023/06/20 19:13:42;;;;;;;;;4.25;3.00;;;;;;;;5017698;28;45408;-87
2023/06/20 19:16:08;;;;;;;;;1.75;1.75;;;;;;;;5016094;28;45409;-86
2023/06/20 19:18:33;;;;;;;;;2.00;2.00;;;;;;;;5015852;28;45612;-86
2023/06/20 19:20:59;;;;;;;;;4.00;3.00;;;;;;;;5015757;28;46201;-87
2023/06/20 19:23:24;;;;;;;;;3.00;1.00;;;;;;;;4999337;28;45560;-85
2023/06/20 19:25:50;;;;;;;;;6.75;3.00;;;;;;;;5013020;28;45381;-86
2023/06/20 19:28:15;;;;;;;;;22.33;14.67;;;;;;;;4998654;28;45739;-85
2023/06/20 19:30:40;;;;;;;;;5.00;3.00;;;;;;;;5015493;28;46553;-85
2023/06/20 19:33:05;;;;;;;;;4.75;3.75;;;;;;;;5015350;28;45535;-87
2023/06/20 19:35:31;;;;;;;;;6.00;4.00;;;;;;;;5014009;28;46556;-85
2023/06/20 19:37:56;;;;;;;;;6.00;2.00;;;;;;;;5010753;28;45326;-83
2023/06/20 19:40:21;;;;;;;;;3.00;3.00;;;;;;;;5016488;28;47110;-87
2023/06/20 19:42:48;;;;;;;;;4.00;3.00;;;;;;;;5015117;28;45417;-88
2023/06/20 19:45:14;;;;;;;;;4.75;4.00;;;;;;;;5016306;28;45488;-86
2023/06/20 19:47:39;;;;;;;;;4.25;2.25;;;;;;;;5016127;28;45574;-87
2023/06/20 19:50:04;;;;;;;;;4.67;3.00;;;;;;;;5015243;28;45585;-86
2023/06/20 19:52:30;;;;;;;;;3.00;2.75;;;;;;;;5010957;28;45643;-86
2023/06/20 19:54:55;;;;;;;;;3.67;2.00;;;;;;;;4997036;28;45728;-88
2023/06/20 19:57:20;;;;;;;;;4.25;3.00;;;;;;;;5015327;28;45380;-86
2023/06/20 19:59:46;;;;;;;;;5.00;4.00;;;;;;;;5011995;28;46099;-87
2023/06/20 20:02:16;;;;;;;;;3.00;3.00;;;;;;;;5007642;28;45428;-88
2023/06/20 20:04:41;;;;;;;;;4.75;3.00;;;;;;;;5019904;28;45497;-86
2023/06/20 20:07:06;;;;;;;;;7.00;3.00;;;;;;;;5015489;28;45758;-87
2023/06/20 20:09:31;;;;;;;;;4.67;4.33;;;;;;;;5014567;28;46829;-85
2023/06/20 20:11:57;;;;;;;;;2.67;2.67;;;;;;;;5015883;28;45509;-86
2023/06/20 20:14:22;;;;;;;;;5.00;3.00;;;;;;;;5015214;28;45485;-86
2023/06/20 20:16:48;;;;;;;;;4.33;3.33;;;;;;;;5012091;28;45442;-86
2023/06/20 20:19:13;;;;;;;;;3.00;2.75;;;;;;;;5015010;28;45512;-86
2023/06/20 20:21:38;;;;;;;;;6.33;3.00;;;;;;;;5014126;28;45378;-85
2023/06/20 20:24:04;;;;;;;;;4.00;3.67;;;;;;;;5015423;28;45524;-85
2023/06/20 20:26:29;;;;;;;;;4.75;4.00;;;;;;;;5019766;28;45512;-86
2023/06/20 20:28:54;;;;;;;;;4.00;3.33;;;;;;;;5013872;28;46850;-87
2023/06/20 20:31:20;;;;;;;;;4.00;2.25;;;;;;;;5015705;28;45493;-87
2023/06/20 20:33:45;;;;;;;;;4.75;3.00;;;;;;;;5009005;28;45510;-88
2023/06/20 20:36:10;;;;;;;;;4.00;4.00;;;;;;;;5015108;28;45262;-87
2023/06/20 20:38:36;;;;;;;;;5.00;3.00;;;;;;;;5013553;28;45639;-86
2023/06/20 20:41:02;;;;;;;;;6.00;4.00;;;;;;;;4999660;28;45463;-87
2023/06/20 20:43:29;;;;;;;;;6.75;4.00;;;;;;;;5014204;28;45471;-87
2023/06/20 20:45:54;;;;;;;;;7.00;2.00;;;;;;;;5015249;28;45300;-87
2023/06/20 20:48:20;;;;;;;;;6.00;3.67;;;;;;;;5025601;28;45539;-87
2023/06/20 20:50:46;;;;;;;;;3.75;2.75;;;;;;;;4999602;28;45535;-86
2023/06/20 20:53:11;;;;;;;;;7.00;4.50;;;;;;;;5009747;28;45976;-90